sensor_id;sensor_type;location;lat;lon;timestamp;P1;durP1;ratioP1;P2;durP2;ratioP2
10090;SDS011;5084;51.386;6.778;2024-02-14T00:01:28;3.93;;;2.37;;
10090;SDS011;5084;51.386;6.778;2024-02-14T00:03:54;2.90;;;2.60;;
10090;SDS011;5084;51.386;6.778;2024-02-14T00:06:20;4.80;;;3.43;;
10090;SDS011;5084;51.386;6.778;2024-02-14T00:08:45;4.80;;;2.67;;
10090;SDS011;5084;51.386;6.778;2024-02-14T00:11:11;3.33;;;2.63;;
10090;SDS011;5084;51.386;6.778;2024-02-14T00:13:39;3.10;;;2.33;;
10090;SDS011;5084;51.386;6.778;2024-02-14T00:16:05;4.83;;;3.00;;
10090;SDS011;5084;51.386;6.778;2024-02-14T00:18:31;4.10;;;2.57;;
10090;SDS011;5084;51.386;6.778;2024-02-14T00:20:57;2.30;;;2.10;;
10090;SDS011;5084;51.386;6.778;2024-02-14T00:23:23;6.10;;;3.07;;
10090;SDS011;5084;51.386;6.778;2024-02-14T00:25:49;5.33;;;2.53;;
10090;SDS011;5084;51.386;6.778;2024-02-14T00:28:15;3.70;;;2.50;;
10090;SDS011;5084;51.386;6.778;2024-02-14T00:30:41;6.00;;;3.27;;
10090;SDS011;5084;51.386;6.778;2024-02-14T00:33:07;3.20;;;2.37;;
10090;SDS011;5084;51.386;6.778;2024-02-14T00:35:33;3.07;;;2.70;;
10090;SDS011;5084;51.386;6.778;2024-02-14T00:37:59;3.03;;;2.50;;
10090;SDS011;5084;51.386;6.778;2024-02-14T00:40:25;2.47;;;2.27;;
10090;SDS011;5084;51.386;6.778;2024-02-14T00:42:51;3.43;;;2.70;;
10090;SDS011;5084;51.386;6.778;2024-02-14T00:45:17;3.87;;;2.63;;
10090;SDS011;5084;51.386;6.778;2024-02-14T00:47:43;5.23;;;2.40;;
10090;SDS011;5084;51.386;6.778;2024-02-14T00:50:09;2.40;;;2.17;;
10090;SDS011;5084;51.386;6.778;2024-02-14T00:52:38;3.47;;;2.80;;
10090;SDS011;5084;51.386;6.778;2024-02-14T00:55:04;3.93;;;2.10;;
10090;SDS011;5084;51.386;6.778;2024-02-14T00:57:31;4.20;;;2.00;;
10090;SDS011;5084;51.386;6.778;2024-02-14T00:59:57;3.40;;;2.33;;
10090;SDS011;5084;51.386;6.778;2024-02-14T01:02:24;7.03;;;2.70;;
10090;SDS011;5084;51.386;6.778;2024-02-14T01:04:51;3.50;;;2.80;;
10090;SDS011;5084;51.386;6.778;2024-02-14T01:07:17;4.53;;;2.13;;
10090;SDS011;5084;51.386;6.778;2024-02-14T01:09:43;3.07;;;2.20;;
10090;SDS011;5084;51.386;6.778;2024-02-14T01:12:09;2.37;;;1.93;;
10090;SDS011;5084;51.386;6.778;2024-02-14T01:14:35;3.33;;;2.23;;
10090;SDS011;5084;51.386;6.778;2024-02-14T01:17:01;2.87;;;2.13;;
10090;SDS011;5084;51.386;6.778;2024-02-14T01:19:28;4.20;;;2.20;;
10090;SDS011;5084;51.386;6.778;2024-02-14T01:21:57;2.20;;;2.03;;
10090;SDS011;5084;51.386;6.778;2024-02-14T01:24:23;3.67;;;2.10;;
10090;SDS011;5084;51.386;6.778;2024-02-14T01:26:52;4.40;;;2.10;;
10090;SDS011;5084;51.386;6.778;2024-02-14T01:29:18;2.77;;;1.80;;
10090;SDS011;5084;51.386;6.778;2024-02-14T01:31:44;2.97;;;1.80;;
10090;SDS011;5084;51.386;6.778;2024-02-14T01:34:10;5.63;;;2.13;;
10090;SDS011;5084;51.386;6.778;2024-02-14T01:36:36;2.33;;;2.13;;
10090;SDS011;5084;51.386;6.778;2024-02-14T01:39:03;5.03;;;2.03;;
10090;SDS011;5084;51.386;6.778;2024-02-14T01:41:35;2.33;;;1.90;;
10090;SDS011;5084;51.386;6.778;2024-02-14T01:44:01;2.00;;;1.80;;
10090;SDS011;5084;51.386;6.778;2024-02-14T01:46:27;4.17;;;2.50;;
10090;SDS011;5084;51.386;6.778;2024-02-14T01:48:53;1.80;;;1.70;;
10090;SDS011;5084;51.386;6.778;2024-02-14T01:51:20;2.13;;;1.70;;
10090;SDS011;5084;51.386;6.778;2024-02-14T01:53:49;2.13;;;1.60;;
10090;SDS011;5084;51.386;6.778;2024-02-14T01:56:15;3.93;;;2.13;;
10090;SDS011;5084;51.386;6.778;2024-02-14T01:58:42;2.27;;;1.80;;
10090;SDS011;5084;51.386;6.778;2024-02-14T02:01:08;2.67;;;1.60;;
10090;SDS011;5084;51.386;6.778;2024-02-14T02:03:35;3.97;;;2.00;;
10090;SDS011;5084;51.386;6.778;2024-02-14T02:06:02;3.33;;;1.40;;
10090;SDS011;5084;51.386;6.778;2024-02-14T02:08:28;3.03;;;1.53;;
10090;SDS011;5084;51.386;6.778;2024-02-14T02:10:54;2.53;;;1.63;;
10090;SDS011;5084;51.386;6.778;2024-02-14T02:13:20;2.30;;;1.70;;
10090;SDS011;5084;51.386;6.778;2024-02-14T02:15:46;1.93;;;1.73;;
10090;SDS011;5084;51.386;6.778;2024-02-14T02:18:12;3.73;;;2.10;;
10090;SDS011;5084;51.386;6.778;2024-02-14T02:20:40;3.37;;;1.67;;
10090;SDS011;5084;51.386;6.778;2024-02-14T02:23:08;2.43;;;1.77;;
10090;SDS011;5084;51.386;6.778;2024-02-14T02:25:34;1.60;;;1.50;;
10090;SDS011;5084;51.386;6.778;2024-02-14T02:28:00;1.93;;;1.50;;
10090;SDS011;5084;51.386;6.778;2024-02-14T02:30:26;2.50;;;1.83;;
10090;SDS011;5084;51.386;6.778;2024-02-14T02:32:52;3.67;;;1.87;;
10090;SDS011;5084;51.386;6.778;2024-02-14T02:35:18;1.60;;;1.30;;
10090;SDS011;5084;51.386;6.778;2024-02-14T02:37:49;1.40;;;1.30;;
10090;SDS011;5084;51.386;6.778;2024-02-14T02:40:15;1.90;;;1.50;;
10090;SDS011;5084;51.386;6.778;2024-02-14T02:42:42;3.67;;;1.40;;
10090;SDS011;5084;51.386;6.778;2024-02-14T02:45:10;1.50;;;1.10;;
10090;SDS011;5084;51.386;6.778;2024-02-14T02:47:36;2.80;;;1.40;;
10090;SDS011;5084;51.386;6.778;2024-02-14T02:50:02;2.90;;;2.20;;
10090;SDS011;5084;51.386;6.778;2024-02-14T02:52:28;2.10;;;1.47;;
10090;SDS011;5084;51.386;6.778;2024-02-14T02:54:56;1.23;;;1.17;;
10090;SDS011;5084;51.386;6.778;2024-02-14T02:57:22;1.50;;;1.40;;
10090;SDS011;5084;51.386;6.778;2024-02-14T02:59:48;2.50;;;1.33;;
10090;SDS011;5084;51.386;6.778;2024-02-14T03:02:15;2.43;;;1.30;;
10090;SDS011;5084;51.386;6.778;2024-02-14T03:04:41;2.20;;;1.33;;
10090;SDS011;5084;51.386;6.778;2024-02-14T03:07:10;3.07;;;1.50;;
10090;SDS011;5084;51.386;6.778;2024-02-14T03:09:36;1.07;;;1.03;;
10090;SDS011;5084;51.386;6.778;2024-02-14T03:12:03;2.50;;;1.40;;
10090;SDS011;5084;51.386;6.778;2024-02-14T03:14:32;3.60;;;1.63;;
10090;SDS011;5084;51.386;6.778;2024-02-14T03:16:59;1.40;;;1.30;;
10090;SDS011;5084;51.386;6.778;2024-02-14T03:19:26;3.13;;;1.30;;
10090;SDS011;5084;51.386;6.778;2024-02-14T03:21:52;1.20;;;1.10;;
10090;SDS011;5084;51.386;6.778;2024-02-14T03:24:19;1.53;;;1.40;;
10090;SDS011;5084;51.386;6.778;2024-02-14T03:26:45;4.03;;;1.70;;
10090;SDS011;5084;51.386;6.778;2024-02-14T03:29:11;1.63;;;1.20;;
10090;SDS011;5084;51.386;6.778;2024-02-14T03:31:37;1.27;;;1.17;;
10090;SDS011;5084;51.386;6.778;2024-02-14T03:34:03;1.60;;;1.37;;
10090;SDS011;5084;51.386;6.778;2024-02-14T03:36:30;1.90;;;1.30;;
10090;SDS011;5084;51.386;6.778;2024-02-14T03:38:57;1.97;;;1.20;;
10090;SDS011;5084;51.386;6.778;2024-02-14T03:41:23;1.87;;;1.40;;
10090;SDS011;5084;51.386;6.778;2024-02-14T03:43:49;1.60;;;1.50;;
10090;SDS011;5084;51.386;6.778;2024-02-14T03:46:17;1.50;;;1.37;;
10090;SDS011;5084;51.386;6.778;2024-02-14T03:48:46;1.40;;;1.30;;
10090;SDS011;5084;51.386;6.778;2024-02-14T03:51:12;2.20;;;1.70;;
10090;SDS011;5084;51.386;6.778;2024-02-14T03:53:39;1.70;;;1.57;;
10090;SDS011;5084;51.386;6.778;2024-02-14T03:56:05;1.77;;;1.60;;
10090;SDS011;5084;51.386;6.778;2024-02-14T03:58:32;3.37;;;2.10;;
10090;SDS011;5084;51.386;6.778;2024-02-14T04:01:02;1.80;;;1.60;;
10090;SDS011;5084;51.386;6.778;2024-02-14T04:03:28;1.80;;;1.70;;
10090;SDS011;5084;51.386;6.778;2024-02-14T04:05:54;3.20;;;1.80;;
10090;SDS011;5084;51.386;6.778;2024-02-14T04:08:20;1.87;;;1.70;;
10090;SDS011;5084;51.386;6.778;2024-02-14T04:10:47;1.97;;;1.30;;
10090;SDS011;5084;51.386;6.778;2024-02-14T04:13:18;1.93;;;1.63;;
10090;SDS011;5084;51.386;6.778;2024-02-14T04:15:45;2.50;;;1.60;;
10090;SDS011;5084;51.386;6.778;2024-02-14T04:18:11;3.13;;;2.07;;
10090;SDS011;5084;51.386;6.778;2024-02-14T04:20:37;1.60;;;1.50;;
10090;SDS011;5084;51.386;6.778;2024-02-14T04:23:04;1.50;;;1.40;;
10090;SDS011;5084;51.386;6.778;2024-02-14T04:25:32;1.57;;;1.47;;
10090;SDS011;5084;51.386;6.778;2024-02-14T04:27:58;1.87;;;1.77;;
10090;SDS011;5084;51.386;6.778;2024-02-14T04:30:25;1.97;;;1.57;;
10090;SDS011;5084;51.386;6.778;2024-02-14T04:32:51;2.40;;;2.00;;
10090;SDS011;5084;51.386;6.778;2024-02-14T04:35:19;1.63;;;1.37;;
10090;SDS011;5084;51.386;6.778;2024-02-14T04:37:45;2.10;;;1.90;;
10090;SDS011;5084;51.386;6.778;2024-02-14T04:40:13;2.00;;;1.90;;
10090;SDS011;5084;51.386;6.778;2024-02-14T04:42:39;2.40;;;1.60;;
10090;SDS011;5084;51.386;6.778;2024-02-14T04:45:05;1.80;;;1.67;;
10090;SDS011;5084;51.386;6.778;2024-02-14T04:47:32;2.77;;;1.60;;
10090;SDS011;5084;51.386;6.778;2024-02-14T04:49:58;1.57;;;1.40;;
10090;SDS011;5084;51.386;6.778;2024-02-14T04:52:25;2.00;;;1.80;;
10090;SDS011;5084;51.386;6.778;2024-02-14T04:54:51;1.80;;;1.70;;
10090;SDS011;5084;51.386;6.778;2024-02-14T04:57:17;2.13;;;1.93;;
10090;SDS011;5084;51.386;6.778;2024-02-14T04:59:45;3.60;;;1.90;;
10090;SDS011;5084;51.386;6.778;2024-02-14T05:02:11;2.03;;;1.83;;
10090;SDS011;5084;51.386;6.778;2024-02-14T05:04:37;2.13;;;1.90;;
10090;SDS011;5084;51.386;6.778;2024-02-14T05:07:04;2.10;;;1.70;;
10090;SDS011;5084;51.386;6.778;2024-02-14T05:09:30;2.00;;;1.80;;
10090;SDS011;5084;51.386;6.778;2024-02-14T05:11:56;3.27;;;2.10;;
10090;SDS011;5084;51.386;6.778;2024-02-14T05:14:22;3.20;;;1.80;;
10090;SDS011;5084;51.386;6.778;2024-02-14T05:16:48;1.60;;;1.50;;
10090;SDS011;5084;51.386;6.778;2024-02-14T05:19:14;1.70;;;1.60;;
10090;SDS011;5084;51.386;6.778;2024-02-14T05:21:40;2.80;;;1.60;;
10090;SDS011;5084;51.386;6.778;2024-02-14T05:24:07;2.60;;;2.00;;
10090;SDS011;5084;51.386;6.778;2024-02-14T05:26:33;3.57;;;2.10;;
10090;SDS011;5084;51.386;6.778;2024-02-14T05:28:59;2.17;;;1.70;;
10090;SDS011;5084;51.386;6.778;2024-02-14T05:31:28;2.23;;;2.03;;
10090;SDS011;5084;51.386;6.778;2024-02-14T05:33:56;2.87;;;2.10;;
10090;SDS011;5084;51.386;6.778;2024-02-14T05:36:22;2.10;;;1.90;;
10090;SDS011;5084;51.386;6.778;2024-02-14T05:38:50;1.77;;;1.67;;
10090;SDS011;5084;51.386;6.778;2024-02-14T05:41:17;2.60;;;1.97;;
10090;SDS011;5084;51.386;6.778;2024-02-14T05:43:43;3.37;;;2.07;;
10090;SDS011;5084;51.386;6.778;2024-02-14T05:46:09;2.30;;;2.00;;
10090;SDS011;5084;51.386;6.778;2024-02-14T05:48:35;2.33;;;1.83;;
10090;SDS011;5084;51.386;6.778;2024-02-14T05:51:01;1.77;;;1.67;;
10090;SDS011;5084;51.386;6.778;2024-02-14T05:53:27;2.17;;;1.90;;
10090;SDS011;5084;51.386;6.778;2024-02-14T05:55:53;1.97;;;1.70;;
10090;SDS011;5084;51.386;6.778;2024-02-14T05:58:19;3.23;;;1.87;;
10090;SDS011;5084;51.386;6.778;2024-02-14T06:00:45;2.07;;;1.87;;
10090;SDS011;5084;51.386;6.778;2024-02-14T06:03:11;4.80;;;2.30;;
10090;SDS011;5084;51.386;6.778;2024-02-14T06:05:37;4.03;;;2.23;;
10090;SDS011;5084;51.386;6.778;2024-02-14T06:08:03;3.43;;;2.43;;
10090;SDS011;5084;51.386;6.778;2024-02-14T06:10:29;3.03;;;1.87;;
10090;SDS011;5084;51.386;6.778;2024-02-14T06:12:55;2.50;;;2.30;;
10090;SDS011;5084;51.386;6.778;2024-02-14T06:15:21;1.90;;;1.80;;
10090;SDS011;5084;51.386;6.778;2024-02-14T06:17:47;2.00;;;1.80;;
10090;SDS011;5084;51.386;6.778;2024-02-14T06:20:13;1.90;;;1.80;;
10090;SDS011;5084;51.386;6.778;2024-02-14T06:22:40;3.43;;;2.00;;
10090;SDS011;5084;51.386;6.778;2024-02-14T06:25:06;2.67;;;2.13;;
10090;SDS011;5084;51.386;6.778;2024-02-14T06:27:32;5.50;;;2.67;;
10090;SDS011;5084;51.386;6.778;2024-02-14T06:29:58;4.10;;;2.67;;
10090;SDS011;5084;51.386;6.778;2024-02-14T06:32:24;4.60;;;2.40;;
10090;SDS011;5084;51.386;6.778;2024-02-14T06:34:50;3.93;;;2.63;;
10090;SDS011;5084;51.386;6.778;2024-02-14T06:37:16;3.27;;;2.30;;
10090;SDS011;5084;51.386;6.778;2024-02-14T06:39:42;2.60;;;2.40;;
10090;SDS011;5084;51.386;6.778;2024-02-14T06:42:08;2.37;;;2.17;;
10090;SDS011;5084;51.386;6.778;2024-02-14T06:44:34;2.83;;;2.40;;
10090;SDS011;5084;51.386;6.778;2024-02-14T06:47:00;2.73;;;2.43;;
10090;SDS011;5084;51.386;6.778;2024-02-14T06:49:26;2.40;;;2.20;;
10090;SDS011;5084;51.386;6.778;2024-02-14T06:51:53;4.20;;;2.80;;
10090;SDS011;5084;51.386;6.778;2024-02-14T06:54:19;3.87;;;2.43;;
10090;SDS011;5084;51.386;6.778;2024-02-14T06:56:45;2.57;;;2.30;;
10090;SDS011;5084;51.386;6.778;2024-02-14T06:59:11;2.60;;;2.03;;
10090;SDS011;5084;51.386;6.778;2024-02-14T07:01:37;2.47;;;2.27;;
10090;SDS011;5084;51.386;6.778;2024-02-14T07:04:03;4.70;;;2.70;;
10090;SDS011;5084;51.386;6.778;2024-02-14T07:06:30;2.77;;;2.57;;
10090;SDS011;5084;51.386;6.778;2024-02-14T07:08:56;2.43;;;2.23;;
10090;SDS011;5084;51.386;6.778;2024-02-14T07:11:22;2.77;;;2.17;;
10090;SDS011;5084;51.386;6.778;2024-02-14T07:13:49;2.50;;;2.30;;
10090;SDS011;5084;51.386;6.778;2024-02-14T07:16:15;2.57;;;2.33;;
10090;SDS011;5084;51.386;6.778;2024-02-14T07:18:41;3.50;;;2.60;;
10090;SDS011;5084;51.386;6.778;2024-02-14T07:21:07;3.00;;;2.70;;
10090;SDS011;5084;51.386;6.778;2024-02-14T07:23:33;2.47;;;2.27;;
10090;SDS011;5084;51.386;6.778;2024-02-14T07:25:59;3.10;;;2.60;;
10090;SDS011;5084;51.386;6.778;2024-02-14T07:28:26;2.33;;;2.13;;
10090;SDS011;5084;51.386;6.778;2024-02-14T07:30:52;2.27;;;2.07;;
10090;SDS011;5084;51.386;6.778;2024-02-14T07:33:18;2.50;;;2.30;;
10090;SDS011;5084;51.386;6.778;2024-02-14T07:35:44;2.67;;;2.17;;
10090;SDS011;5084;51.386;6.778;2024-02-14T07:38:12;3.63;;;2.60;;
10090;SDS011;5084;51.386;6.778;2024-02-14T07:40:38;2.90;;;2.70;;
10090;SDS011;5084;51.386;6.778;2024-02-14T07:43:04;2.60;;;2.40;;
10090;SDS011;5084;51.386;6.778;2024-02-14T07:45:32;2.50;;;2.30;;
10090;SDS011;5084;51.386;6.778;2024-02-14T07:47:58;2.80;;;2.33;;
10090;SDS011;5084;51.386;6.778;2024-02-14T07:50:24;4.27;;;2.83;;
10090;SDS011;5084;51.386;6.778;2024-02-14T07:52:52;2.93;;;2.60;;
10090;SDS011;5084;51.386;6.778;2024-02-14T07:55:18;2.80;;;2.60;;
10090;SDS011;5084;51.386;6.778;2024-02-14T07:57:45;3.70;;;2.73;;
10090;SDS011;5084;51.386;6.778;2024-02-14T08:00:11;2.73;;;2.50;;
10090;SDS011;5084;51.386;6.778;2024-02-14T08:02:37;4.83;;;2.90;;
10090;SDS011;5084;51.386;6.778;2024-02-14T08:05:03;3.10;;;2.40;;
10090;SDS011;5084;51.386;6.778;2024-02-14T08:07:33;3.60;;;2.50;;
10090;SDS011;5084;51.386;6.778;2024-02-14T08:09:59;2.70;;;2.30;;
10090;SDS011;5084;51.386;6.778;2024-02-14T08:12:25;3.47;;;2.63;;
10090;SDS011;5084;51.386;6.778;2024-02-14T08:14:51;2.70;;;2.50;;
10090;SDS011;5084;51.386;6.778;2024-02-14T08:17:17;2.93;;;2.30;;
10090;SDS011;5084;51.386;6.778;2024-02-14T08:19:44;3.63;;;2.30;;
10090;SDS011;5084;51.386;6.778;2024-02-14T08:22:09;3.90;;;2.30;;
10090;SDS011;5084;51.386;6.778;2024-02-14T08:24:37;5.23;;;2.90;;
10090;SDS011;5084;51.386;6.778;2024-02-14T08:27:03;3.73;;;2.40;;
10090;SDS011;5084;51.386;6.778;2024-02-14T08:29:32;3.40;;;2.53;;
10090;SDS011;5084;51.386;6.778;2024-02-14T08:31:58;2.97;;;2.33;;
10090;SDS011;5084;51.386;6.778;2024-02-14T08:34:24;3.93;;;2.73;;
10090;SDS011;5084;51.386;6.778;2024-02-14T08:36:51;3.70;;;2.57;;
10090;SDS011;5084;51.386;6.778;2024-02-14T08:39:18;2.40;;;2.20;;
10090;SDS011;5084;51.386;6.778;2024-02-14T08:41:44;2.77;;;2.57;;
10090;SDS011;5084;51.386;6.778;2024-02-14T08:44:12;4.97;;;2.57;;
10090;SDS011;5084;51.386;6.778;2024-02-14T08:46:38;2.80;;;2.20;;
10090;SDS011;5084;51.386;6.778;2024-02-14T08:49:04;3.23;;;2.40;;
10090;SDS011;5084;51.386;6.778;2024-02-14T08:51:34;3.00;;;2.20;;
10090;SDS011;5084;51.386;6.778;2024-02-14T08:54:00;2.00;;;1.90;;
10090;SDS011;5084;51.386;6.778;2024-02-14T08:56:29;4.20;;;2.50;;
10090;SDS011;5084;51.386;6.778;2024-02-14T08:58:57;2.67;;;2.40;;
10090;SDS011;5084;51.386;6.778;2024-02-14T09:01:23;2.00;;;1.90;;
10090;SDS011;5084;51.386;6.778;2024-02-14T09:03:51;4.23;;;2.10;;
10090;SDS011;5084;51.386;6.778;2024-02-14T09:06:17;3.30;;;2.40;;
10090;SDS011;5084;51.386;6.778;2024-02-14T09:08:43;3.17;;;2.10;;
10090;SDS011;5084;51.386;6.778;2024-02-14T09:11:09;4.03;;;2.53;;
10090;SDS011;5084;51.386;6.778;2024-02-14T09:13:37;4.23;;;2.10;;
10090;SDS011;5084;51.386;6.778;2024-02-14T09:16:05;2.63;;;2.23;;
10090;SDS011;5084;51.386;6.778;2024-02-14T09:18:31;2.00;;;1.90;;
10090;SDS011;5084;51.386;6.778;2024-02-14T09:20:57;3.40;;;2.47;;
10090;SDS011;5084;51.386;6.778;2024-02-14T09:23:23;3.73;;;2.17;;
10090;SDS011;5084;51.386;6.778;2024-02-14T09:25:49;2.57;;;2.30;;
10090;SDS011;5084;51.386;6.778;2024-02-14T09:28:16;2.17;;;2.07;;
10090;SDS011;5084;51.386;6.778;2024-02-14T09:30:42;3.67;;;2.20;;
10090;SDS011;5084;51.386;6.778;2024-02-14T09:33:08;2.90;;;2.03;;
10090;SDS011;5084;51.386;6.778;2024-02-14T09:35:34;2.67;;;2.30;;
10090;SDS011;5084;51.386;6.778;2024-02-14T09:38:02;2.20;;;1.97;;
10090;SDS011;5084;51.386;6.778;2024-02-14T09:40:29;2.40;;;2.20;;
10090;SDS011;5084;51.386;6.778;2024-02-14T09:42:55;4.20;;;2.40;;
10090;SDS011;5084;51.386;6.778;2024-02-14T09:45:26;2.23;;;1.90;;
10090;SDS011;5084;51.386;6.778;2024-02-14T09:47:55;2.67;;;2.00;;
10090;SDS011;5084;51.386;6.778;2024-02-14T09:50:22;2.50;;;2.30;;
10090;SDS011;5084;51.386;6.778;2024-02-14T09:52:49;3.73;;;2.40;;
10090;SDS011;5084;51.386;6.778;2024-02-14T09:55:15;2.63;;;2.13;;
10090;SDS011;5084;51.386;6.778;2024-02-14T09:57:42;4.00;;;2.33;;
10090;SDS011;5084;51.386;6.778;2024-02-14T10:00:11;3.23;;;2.40;;
10090;SDS011;5084;51.386;6.778;2024-02-14T10:02:40;2.47;;;1.67;;
10090;SDS011;5084;51.386;6.778;2024-02-14T10:05:06;2.33;;;2.13;;
10090;SDS011;5084;51.386;6.778;2024-02-14T10:07:39;3.33;;;2.13;;
10090;SDS011;5084;51.386;6.778;2024-02-14T10:10:08;3.03;;;2.20;;
10090;SDS011;5084;51.386;6.778;2024-02-14T10:12:34;3.00;;;1.97;;
10090;SDS011;5084;51.386;6.778;2024-02-14T10:15:00;2.80;;;1.93;;
10090;SDS011;5084;51.386;6.778;2024-02-14T10:17:27;3.03;;;1.93;;
10090;SDS011;5084;51.386;6.778;2024-02-14T10:19:57;5.63;;;2.13;;
10090;SDS011;5084;51.386;6.778;2024-02-14T10:22:25;2.70;;;2.00;;
10090;SDS011;5084;51.386;6.778;2024-02-14T10:24:51;4.20;;;1.97;;
10090;SDS011;5084;51.386;6.778;2024-02-14T10:27:17;2.60;;;2.00;;
10090;SDS011;5084;51.386;6.778;2024-02-14T10:29:44;4.13;;;2.27;;
10090;SDS011;5084;51.386;6.778;2024-02-14T10:32:13;2.53;;;1.63;;
10090;SDS011;5084;51.386;6.778;2024-02-14T10:34:40;2.93;;;1.93;;
10090;SDS011;5084;51.386;6.778;2024-02-14T10:37:06;2.27;;;1.77;;
10090;SDS011;5084;51.386;6.778;2024-02-14T10:39:33;3.40;;;1.93;;
10090;SDS011;5084;51.386;6.778;2024-02-14T10:42:01;4.33;;;2.27;;
10090;SDS011;5084;51.386;6.778;2024-02-14T10:44:28;2.27;;;2.00;;
10090;SDS011;5084;51.386;6.778;2024-02-14T10:46:55;3.27;;;1.77;;
10090;SDS011;5084;51.386;6.778;2024-02-14T10:49:21;2.93;;;1.83;;
10090;SDS011;5084;51.386;6.778;2024-02-14T10:51:49;2.87;;;1.80;;
10090;SDS011;5084;51.386;6.778;2024-02-14T10:54:18;2.50;;;1.87;;
10090;SDS011;5084;51.386;6.778;2024-02-14T10:56:47;1.97;;;1.77;;
10090;SDS011;5084;51.386;6.778;2024-02-14T10:59:17;3.47;;;1.53;;
10090;SDS011;5084;51.386;6.778;2024-02-14T11:01:44;1.87;;;1.77;;
10090;SDS011;5084;51.386;6.778;2024-02-14T11:04:11;2.60;;;1.73;;
10090;SDS011;5084;51.386;6.778;2024-02-14T11:06:44;3.83;;;1.90;;
10090;SDS011;5084;51.386;6.778;2024-02-14T11:09:11;3.30;;;2.03;;
10090;SDS011;5084;51.386;6.778;2024-02-14T11:11:38;2.07;;;1.23;;
10090;SDS011;5084;51.386;6.778;2024-02-14T11:14:04;3.73;;;1.97;;
10090;SDS011;5084;51.386;6.778;2024-02-14T11:16:31;2.23;;;1.87;;
10090;SDS011;5084;51.386;6.778;2024-02-14T11:19:07;5.53;;;2.10;;
10090;SDS011;5084;51.386;6.778;2024-02-14T11:21:37;2.90;;;1.80;;
10090;SDS011;5084;51.386;6.778;2024-02-14T11:24:07;4.07;;;1.90;;
10090;SDS011;5084;51.386;6.778;2024-02-14T11:26:40;1.93;;;1.70;;
10090;SDS011;5084;51.386;6.778;2024-02-14T11:29:06;2.63;;;1.77;;
10090;SDS011;5084;51.386;6.778;2024-02-14T11:31:35;1.70;;;1.60;;
10090;SDS011;5084;51.386;6.778;2024-02-14T11:34:03;2.30;;;2.10;;
10090;SDS011;5084;51.386;6.778;2024-02-14T11:36:30;8.87;;;2.33;;
10090;SDS011;5084;51.386;6.778;2024-02-14T11:38:58;1.83;;;1.73;;
10090;SDS011;5084;51.386;6.778;2024-02-14T11:41:24;4.37;;;2.80;;
10090;SDS011;5084;51.386;6.778;2024-02-14T11:43:52;1.80;;;1.40;;
10090;SDS011;5084;51.386;6.778;2024-02-14T11:46:19;2.13;;;1.73;;
10090;SDS011;5084;51.386;6.778;2024-02-14T11:48:45;2.53;;;1.43;;
10090;SDS011;5084;51.386;6.778;2024-02-14T11:51:11;2.00;;;1.40;;
10090;SDS011;5084;51.386;6.778;2024-02-14T11:53:38;1.73;;;1.53;;
10090;SDS011;5084;51.386;6.778;2024-02-14T11:56:06;3.40;;;1.60;;
10090;SDS011;5084;51.386;6.778;2024-02-14T11:58:32;6.00;;;1.93;;
10090;SDS011;5084;51.386;6.778;2024-02-14T12:00:59;2.73;;;1.57;;
10090;SDS011;5084;51.386;6.778;2024-02-14T12:03:30;1.93;;;1.50;;
10090;SDS011;5084;51.386;6.778;2024-02-14T12:05:56;2.13;;;1.50;;
10090;SDS011;5084;51.386;6.778;2024-02-14T12:08:22;1.90;;;1.47;;
10090;SDS011;5084;51.386;6.778;2024-02-14T12:10:48;1.80;;;1.70;;
10090;SDS011;5084;51.386;6.778;2024-02-14T12:13:15;4.43;;;1.57;;
10090;SDS011;5084;51.386;6.778;2024-02-14T12:15:44;2.20;;;1.60;;
10090;SDS011;5084;51.386;6.778;2024-02-14T12:18:10;2.10;;;1.60;;
10090;SDS011;5084;51.386;6.778;2024-02-14T12:20:41;1.47;;;1.30;;
10090;SDS011;5084;51.386;6.778;2024-02-14T12:23:07;2.90;;;1.43;;
10090;SDS011;5084;51.386;6.778;2024-02-14T12:25:33;1.87;;;1.40;;
10090;SDS011;5084;51.386;6.778;2024-02-14T12:28:00;2.37;;;1.60;;
10090;SDS011;5084;51.386;6.778;2024-02-14T12:30:44;1.50;;;1.40;;
10090;SDS011;5084;51.386;6.778;2024-02-14T12:33:11;2.30;;;1.47;;
10090;SDS011;5084;51.386;6.778;2024-02-14T12:35:41;1.57;;;1.47;;
10090;SDS011;5084;51.386;6.778;2024-02-14T12:38:10;4.10;;;1.43;;
10090;SDS011;5084;51.386;6.778;2024-02-14T12:40:37;2.60;;;1.63;;
10090;SDS011;5084;51.386;6.778;2024-02-14T12:43:03;1.73;;;1.60;;
10090;SDS011;5084;51.386;6.778;2024-02-14T12:45:30;2.00;;;1.40;;
10090;SDS011;5084;51.386;6.778;2024-02-14T12:47:56;2.40;;;1.60;;
10090;SDS011;5084;51.386;6.778;2024-02-14T12:50:22;1.57;;;1.30;;
10090;SDS011;5084;51.386;6.778;2024-02-14T12:52:48;2.57;;;1.70;;
10090;SDS011;5084;51.386;6.778;2024-02-14T12:55:15;1.33;;;1.23;;
10090;SDS011;5084;51.386;6.778;2024-02-14T12:57:41;3.80;;;1.57;;
10090;SDS011;5084;51.386;6.778;2024-02-14T13:00:07;1.63;;;1.40;;
10090;SDS011;5084;51.386;6.778;2024-02-14T13:02:36;1.20;;;1.10;;
10090;SDS011;5084;51.386;6.778;2024-02-14T13:05:05;1.60;;;1.50;;
10090;SDS011;5084;51.386;6.778;2024-02-14T13:07:32;3.13;;;1.80;;
10090;SDS011;5084;51.386;6.778;2024-02-14T13:09:58;2.60;;;1.50;;
10090;SDS011;5084;51.386;6.778;2024-02-14T13:12:24;1.43;;;1.30;;
10090;SDS011;5084;51.386;6.778;2024-02-14T13:14:50;2.60;;;1.27;;
10090;SDS011;5084;51.386;6.778;2024-02-14T13:17:16;2.00;;;1.60;;
10090;SDS011;5084;51.386;6.778;2024-02-14T13:19:42;1.90;;;1.40;;
10090;SDS011;5084;51.386;6.778;2024-02-14T13:22:09;3.00;;;1.43;;
10090;SDS011;5084;51.386;6.778;2024-02-14T13:24:35;2.20;;;1.27;;
10090;SDS011;5084;51.386;6.778;2024-02-14T13:27:01;1.67;;;1.40;;
10090;SDS011;5084;51.386;6.778;2024-02-14T13:29:27;1.30;;;1.20;;
10090;SDS011;5084;51.386;6.778;2024-02-14T13:31:54;1.43;;;1.30;;
10090;SDS011;5084;51.386;6.778;2024-02-14T13:34:20;1.77;;;1.50;;
10090;SDS011;5084;51.386;6.778;2024-02-14T13:36:46;2.70;;;1.13;;
10090;SDS011;5084;51.386;6.778;2024-02-14T13:39:12;1.30;;;1.20;;
10090;SDS011;5084;51.386;6.778;2024-02-14T13:41:39;1.87;;;1.37;;
10090;SDS011;5084;51.386;6.778;2024-02-14T13:44:08;1.73;;;1.50;;
10090;SDS011;5084;51.386;6.778;2024-02-14T13:46:34;1.83;;;1.40;;
10090;SDS011;5084;51.386;6.778;2024-02-14T13:49:00;1.73;;;1.50;;
10090;SDS011;5084;51.386;6.778;2024-02-14T13:51:26;1.30;;;1.20;;
10090;SDS011;5084;51.386;6.778;2024-02-14T13:53:53;1.73;;;1.30;;
10090;SDS011;5084;51.386;6.778;2024-02-14T13:56:19;1.47;;;1.30;;
10090;SDS011;5084;51.386;6.778;2024-02-14T13:58:49;2.23;;;1.03;;
10090;SDS011;5084;51.386;6.778;2024-02-14T14:01:15;1.37;;;1.27;;
10090;SDS011;5084;51.386;6.778;2024-02-14T14:03:42;1.80;;;1.10;;
10090;SDS011;5084;51.386;6.778;2024-02-14T14:06:08;1.93;;;1.73;;
10090;SDS011;5084;51.386;6.778;2024-02-14T14:08:35;1.40;;;1.30;;
10090;SDS011;5084;51.386;6.778;2024-02-14T14:11:04;3.20;;;1.20;;
10090;SDS011;5084;51.386;6.778;2024-02-14T14:13:30;1.40;;;1.30;;
10090;SDS011;5084;51.386;6.778;2024-02-14T14:15:58;1.30;;;1.27;;
10090;SDS011;5084;51.386;6.778;2024-02-14T14:18:24;2.23;;;1.57;;
10090;SDS011;5084;51.386;6.778;2024-02-14T14:20:51;2.33;;;1.20;;
10090;SDS011;5084;51.386;6.778;2024-02-14T14:23:17;1.67;;;1.57;;
10090;SDS011;5084;51.386;6.778;2024-02-14T14:25:43;1.73;;;1.30;;
10090;SDS011;5084;51.386;6.778;2024-02-14T14:28:10;1.57;;;1.43;;
10090;SDS011;5084;51.386;6.778;2024-02-14T14:30:36;1.73;;;1.20;;
10090;SDS011;5084;51.386;6.778;2024-02-14T14:33:03;2.60;;;1.20;;
10090;SDS011;5084;51.386;6.778;2024-02-14T14:35:29;2.83;;;1.40;;
10090;SDS011;5084;51.386;6.778;2024-02-14T14:37:59;1.30;;;1.20;;
10090;SDS011;5084;51.386;6.778;2024-02-14T14:40:25;3.43;;;1.20;;
10090;SDS011;5084;51.386;6.778;2024-02-14T14:42:52;1.30;;;1.20;;
10090;SDS011;5084;51.386;6.778;2024-02-14T14:45:18;1.50;;;1.30;;
10090;SDS011;5084;51.386;6.778;2024-02-14T14:47:44;1.73;;;1.30;;
10090;SDS011;5084;51.386;6.778;2024-02-14T14:50:11;1.13;;;1.03;;
10090;SDS011;5084;51.386;6.778;2024-02-14T14:52:41;2.37;;;1.27;;
10090;SDS011;5084;51.386;6.778;2024-02-14T14:55:08;1.17;;;1.17;;
10090;SDS011;5084;51.386;6.778;2024-02-14T14:57:35;1.23;;;1.13;;